sensor_id;sensor_type;location;lat;lon;timestamp;P1;durP1;ratioP1;P2;durP2;ratioP2
15192;SDS011;7697;51.630;7.484;2023-05-07T00:04:54;4.78;;;3.30;;
15192;SDS011;7697;51.630;7.484;2023-05-07T00:09:56;4.00;;;3.70;;
15192;SDS011;7697;51.630;7.484;2023-05-07T00:14:59;3.50;;;3.20;;
15192;SDS011;7697;51.630;7.484;2023-05-07T00:20:01;3.42;;;3.13;;
15192;SDS011;7697;51.630;7.484;2023-05-07T00:25:05;3.00;;;2.80;;
15192;SDS011;7697;51.630;7.484;2023-05-07T00:30:09;3.90;;;3.50;;
15192;SDS011;7697;51.630;7.484;2023-05-07T00:35:11;3.47;;;3.03;;
15192;SDS011;7697;51.630;7.484;2023-05-07T00:40:13;3.42;;;3.13;;
15192;SDS011;7697;51.630;7.484;2023-05-07T00:45:16;3.33;;;3.03;;
15192;SDS011;7697;51.630;7.484;2023-05-07T00:50:18;3.17;;;2.88;;
15192;SDS011;7697;51.630;7.484;2023-05-07T00:55:22;3.28;;;2.97;;
15192;SDS011;7697;51.630;7.484;2023-05-07T01:00:26;3.40;;;3.10;;
15192;SDS011;7697;51.630;7.484;2023-05-07T01:05:28;2.97;;;2.72;;
15192;SDS011;7697;51.630;7.484;2023-05-07T01:10:30;3.92;;;3.58;;
15192;SDS011;7697;51.630;7.484;2023-05-07T01:15:34;3.90;;;3.38;;
15192;SDS011;7697;51.630;7.484;2023-05-07T01:20:36;3.17;;;2.95;;
15192;SDS011;7697;51.630;7.484;2023-05-07T01:25:39;3.45;;;3.15;;
15192;SDS011;7697;51.630;7.484;2023-05-07T01:30:41;3.15;;;2.92;;
15192;SDS011;7697;51.630;7.484;2023-05-07T01:35:46;3.08;;;2.88;;
15192;SDS011;7697;51.630;7.484;2023-05-07T01:40:51;3.38;;;3.08;;
15192;SDS011;7697;51.630;7.484;2023-05-07T01:45:54;3.72;;;3.15;;
15192;SDS011;7697;51.630;7.484;2023-05-07T01:50:57;3.30;;;3.00;;
15192;SDS011;7697;51.630;7.484;2023-05-07T01:56:01;3.67;;;3.38;;
15192;SDS011;7697;51.630;7.484;2023-05-07T02:01:03;3.30;;;3.00;;
15192;SDS011;7697;51.630;7.484;2023-05-07T02:06:05;3.47;;;3.17;;
15192;SDS011;7697;51.630;7.484;2023-05-07T02:11:08;3.50;;;3.15;;
15192;SDS011;7697;51.630;7.484;2023-05-07T02:16:10;3.45;;;3.15;;
15192;SDS011;7697;51.630;7.484;2023-05-07T02:21:14;5.55;;;3.40;;
15192;SDS011;7697;51.630;7.484;2023-05-07T02:26:17;3.75;;;3.45;;
15192;SDS011;7697;51.630;7.484;2023-05-07T02:31:20;4.60;;;3.58;;
15192;SDS011;7697;51.630;7.484;2023-05-07T02:36:22;3.70;;;3.40;;
15192;SDS011;7697;51.630;7.484;2023-05-07T02:41:25;3.88;;;3.58;;
15192;SDS011;7697;51.630;7.484;2023-05-07T02:46:28;5.45;;;4.95;;
15192;SDS011;7697;51.630;7.484;2023-05-07T02:51:29;4.88;;;4.47;;
15192;SDS011;7697;51.630;7.484;2023-05-07T02:56:33;5.15;;;4.75;;
15192;SDS011;7697;51.630;7.484;2023-05-07T03:01:35;5.50;;;4.30;;
15192;SDS011;7697;51.630;7.484;2023-05-07T03:06:37;4.45;;;4.05;;
15192;SDS011;7697;51.630;7.484;2023-05-07T03:11:40;4.00;;;3.70;;
15192;SDS011;7697;51.630;7.484;2023-05-07T03:16:42;3.92;;;3.63;;
15192;SDS011;7697;51.630;7.484;2023-05-07T03:21:43;5.10;;;4.60;;
15192;SDS011;7697;51.630;7.484;2023-05-07T03:26:48;4.90;;;4.50;;
15192;SDS011;7697;51.630;7.484;2023-05-07T03:31:50;3.85;;;3.55;;
15192;SDS011;7697;51.630;7.484;2023-05-07T03:36:52;3.90;;;3.60;;
15192;SDS011;7697;51.630;7.484;2023-05-07T03:41:55;4.03;;;3.65;;
15192;SDS011;7697;51.630;7.484;2023-05-07T03:46:57;3.88;;;3.58;;
15192;SDS011;7697;51.630;7.484;2023-05-07T03:52:00;4.68;;;4.22;;
15192;SDS011;7697;51.630;7.484;2023-05-07T03:57:03;4.40;;;4.00;;
15192;SDS011;7697;51.630;7.484;2023-05-07T04:02:04;3.85;;;3.55;;
15192;SDS011;7697;51.630;7.484;2023-05-07T04:07:06;3.85;;;3.55;;
15192;SDS011;7697;51.630;7.484;2023-05-07T04:12:09;3.38;;;3.08;;
15192;SDS011;7697;51.630;7.484;2023-05-07T04:17:11;4.00;;;3.67;;
15192;SDS011;7697;51.630;7.484;2023-05-07T04:22:13;4.43;;;4.03;;
15192;SDS011;7697;51.630;7.484;2023-05-07T04:27:16;4.50;;;3.60;;
15192;SDS011;7697;51.630;7.484;2023-05-07T04:32:18;3.90;;;3.60;;
15192;SDS011;7697;51.630;7.484;2023-05-07T04:37:20;4.18;;;3.78;;
15192;SDS011;7697;51.630;7.484;2023-05-07T04:42:23;3.95;;;3.65;;
15192;SDS011;7697;51.630;7.484;2023-05-07T04:47:25;5.05;;;4.55;;
15192;SDS011;7697;51.630;7.484;2023-05-07T04:52:27;6.28;;;5.68;;
15192;SDS011;7697;51.630;7.484;2023-05-07T04:57:30;5.18;;;4.68;;
15192;SDS011;7697;51.630;7.484;2023-05-07T05:02:31;7.68;;;5.95;;
15192;SDS011;7697;51.630;7.484;2023-05-07T05:07:33;7.97;;;6.15;;
15192;SDS011;7697;51.630;7.484;2023-05-07T05:12:36;5.88;;;5.35;;
15192;SDS011;7697;51.630;7.484;2023-05-07T05:17:38;7.03;;;6.32;;
15192;SDS011;7697;51.630;7.484;2023-05-07T05:22:40;7.30;;;6.60;;
15192;SDS011;7697;51.630;7.484;2023-05-07T05:27:44;7.38;;;6.65;;
15192;SDS011;7697;51.630;7.484;2023-05-07T05:32:46;6.80;;;6.20;;
15192;SDS011;7697;51.630;7.484;2023-05-07T05:37:48;6.35;;;5.75;;
15192;SDS011;7697;51.630;7.484;2023-05-07T05:42:51;7.65;;;6.93;;
15192;SDS011;7697;51.630;7.484;2023-05-07T05:47:53;7.45;;;6.75;;
15192;SDS011;7697;51.630;7.484;2023-05-07T05:52:57;8.15;;;7.40;;
15192;SDS011;7697;51.630;7.484;2023-05-07T05:58:00;6.63;;;6.03;;
15192;SDS011;7697;51.630;7.484;2023-05-07T06:03:02;7.85;;;7.00;;
15192;SDS011;7697;51.630;7.484;2023-05-07T06:08:04;8.80;;;8.00;;
15192;SDS011;7697;51.630;7.484;2023-05-07T06:13:07;9.15;;;8.25;;
15192;SDS011;7697;51.630;7.484;2023-05-07T06:18:09;9.75;;;8.38;;
15192;SDS011;7697;51.630;7.484;2023-05-07T06:23:11;9.95;;;8.95;;
15192;SDS011;7697;51.630;7.484;2023-05-07T06:28:14;9.18;;;8.25;;
15192;SDS011;7697;51.630;7.484;2023-05-07T06:33:16;11.98;;;9.88;;
15192;SDS011;7697;51.630;7.484;2023-05-07T06:38:19;11.77;;;10.57;;
15192;SDS011;7697;51.630;7.484;2023-05-07T06:43:23;10.88;;;9.82;;
15192;SDS011;7697;51.630;7.484;2023-05-07T06:48:24;10.60;;;9.50;;
15192;SDS011;7697;51.630;7.484;2023-05-07T06:53:26;11.40;;;10.30;;
15192;SDS011;7697;51.630;7.484;2023-05-07T06:58:32;10.20;;;9.30;;
15192;SDS011;7697;51.630;7.484;2023-05-07T07:03:34;12.60;;;11.40;;
15192;SDS011;7697;51.630;7.484;2023-05-07T07:08:36;10.95;;;9.85;;
15192;SDS011;7697;51.630;7.484;2023-05-07T07:13:40;12.38;;;10.82;;
15192;SDS011;7697;51.630;7.484;2023-05-07T07:18:43;10.82;;;9.77;;
15192;SDS011;7697;51.630;7.484;2023-05-07T07:23:45;12.60;;;11.20;;
15192;SDS011;7697;51.630;7.484;2023-05-07T07:28:59;11.68;;;10.45;;
15192;SDS011;7697;51.630;7.484;2023-05-07T07:34:08;12.23;;;11.02;;
15192;SDS011;7697;51.630;7.484;2023-05-07T07:39:10;12.85;;;11.45;;
15192;SDS011;7697;51.630;7.484;2023-05-07T07:44:13;12.82;;;11.52;;
15192;SDS011;7697;51.630;7.484;2023-05-07T07:49:15;12.40;;;9.93;;
15192;SDS011;7697;51.630;7.484;2023-05-07T07:54:18;12.60;;;10.25;;
15192;SDS011;7697;51.630;7.484;2023-05-07T07:59:21;11.52;;;9.95;;
15192;SDS011;7697;51.630;7.484;2023-05-07T08:04:23;11.50;;;10.40;;
15192;SDS011;7697;51.630;7.484;2023-05-07T08:09:25;11.65;;;10.45;;
15192;SDS011;7697;51.630;7.484;2023-05-07T08:14:28;11.40;;;10.30;;
15192;SDS011;7697;51.630;7.484;2023-05-07T08:19:30;10.60;;;9.32;;
15192;SDS011;7697;51.630;7.484;2023-05-07T08:24:32;10.30;;;9.27;;
15192;SDS011;7697;51.630;7.484;2023-05-07T08:29:35;11.98;;;10.77;;
15192;SDS011;7697;51.630;7.484;2023-05-07T08:34:37;9.82;;;8.90;;
15192;SDS011;7697;51.630;7.484;2023-05-07T08:39:39;9.95;;;9.05;;
15192;SDS011;7697;51.630;7.484;2023-05-07T08:44:42;9.32;;;8.38;;
15192;SDS011;7697;51.630;7.484;2023-05-07T08:49:47;8.95;;;8.15;;
15192;SDS011;7697;51.630;7.484;2023-05-07T08:54:49;8.43;;;7.63;;
15192;SDS011;7697;51.630;7.484;2023-05-07T08:59:53;10.02;;;8.82;;
15192;SDS011;7697;51.630;7.484;2023-05-07T09:04:55;9.13;;;8.18;;
15192;SDS011;7697;51.630;7.484;2023-05-07T09:09:57;10.05;;;8.23;;
15192;SDS011;7697;51.630;7.484;2023-05-07T09:15:01;10.75;;;9.52;;
15192;SDS011;7697;51.630;7.484;2023-05-07T09:20:03;9.93;;;8.85;;
15192;SDS011;7697;51.630;7.484;2023-05-07T09:25:06;8.50;;;7.70;;
15192;SDS011;7697;51.630;7.484;2023-05-07T09:30:11;9.15;;;8.13;;
15192;SDS011;7697;51.630;7.484;2023-05-07T09:35:14;7.65;;;6.85;;
15192;SDS011;7697;51.630;7.484;2023-05-07T09:40:20;9.80;;;8.80;;
15192;SDS011;7697;51.630;7.484;2023-05-07T09:45:25;10.30;;;9.30;;
15192;SDS011;7697;51.630;7.484;2023-05-07T09:50:28;8.88;;;8.00;;
15192;SDS011;7697;51.630;7.484;2023-05-07T09:55:33;9.07;;;8.07;;
15192;SDS011;7697;51.630;7.484;2023-05-07T10:00:37;10.20;;;8.75;;
15192;SDS011;7697;51.630;7.484;2023-05-07T10:05:41;9.70;;;8.00;;
15192;SDS011;7697;51.630;7.484;2023-05-07T10:10:47;9.85;;;8.85;;
15192;SDS011;7697;51.630;7.484;2023-05-07T10:15:52;8.98;;;8.05;;
15192;SDS011;7697;51.630;7.484;2023-05-07T10:20:55;9.35;;;8.45;;
15192;SDS011;7697;51.630;7.484;2023-05-07T10:26:03;8.27;;;7.47;;
15192;SDS011;7697;51.630;7.484;2023-05-07T10:31:10;10.23;;;9.20;;
15192;SDS011;7697;51.630;7.484;2023-05-07T10:36:25;10.18;;;8.75;;
15192;SDS011;7697;51.630;7.484;2023-05-07T10:41:27;8.82;;;7.43;;
15192;SDS011;7697;51.630;7.484;2023-05-07T10:46:31;8.00;;;7.30;;
15192;SDS011;7697;51.630;7.484;2023-05-07T10:51:35;7.80;;;7.03;;
15192;SDS011;7697;51.630;7.484;2023-05-07T10:56:37;7.07;;;6.38;;
15192;SDS011;7697;51.630;7.484;2023-05-07T11:01:54;7.10;;;6.40;;
15192;SDS011;7697;51.630;7.484;2023-05-07T11:07:16;8.65;;;6.70;;
15192;SDS011;7697;51.630;7.484;2023-05-07T11:17:55;6.72;;;6.03;;
15192;SDS011;7697;51.630;7.484;2023-05-07T11:22:57;7.85;;;7.05;;
15192;SDS011;7697;51.630;7.484;2023-05-07T11:28:03;6.82;;;6.13;;
15192;SDS011;7697;51.630;7.484;2023-05-07T11:33:07;6.07;;;5.57;;
15192;SDS011;7697;51.630;7.484;2023-05-07T11:38:09;6.00;;;5.50;;
15192;SDS011;7697;51.630;7.484;2023-05-07T11:43:12;6.55;;;5.95;;
15192;SDS011;7697;51.630;7.484;2023-05-07T11:48:15;5.88;;;5.38;;
15192;SDS011;7697;51.630;7.484;2023-05-07T11:53:17;5.75;;;5.13;;
15192;SDS011;7697;51.630;7.484;2023-05-07T11:58:20;5.65;;;5.13;;
15192;SDS011;7697;51.630;7.484;2023-05-07T12:03:24;5.90;;;5.30;;
15192;SDS011;7697;51.630;7.484;2023-05-07T12:08:26;5.35;;;4.85;;
15192;SDS011;7697;51.630;7.484;2023-05-07T12:13:28;6.13;;;5.22;;
15192;SDS011;7697;51.630;7.484;2023-05-07T12:18:31;5.50;;;5.00;;
15192;SDS011;7697;51.630;7.484;2023-05-07T12:23:33;5.70;;;5.20;;
15192;SDS011;7697;51.630;7.484;2023-05-07T12:28:36;5.63;;;5.00;;
15192;SDS011;7697;51.630;7.484;2023-05-07T12:33:41;6.03;;;5.18;;
15192;SDS011;7697;51.630;7.484;2023-05-07T12:38:43;6.22;;;4.93;;
15192;SDS011;7697;51.630;7.484;2023-05-07T12:43:45;6.40;;;5.80;;
15192;SDS011;7697;51.630;7.484;2023-05-07T12:48:48;5.90;;;4.85;;
15192;SDS011;7697;51.630;7.484;2023-05-07T12:53:50;6.55;;;5.47;;
15192;SDS011;7697;51.630;7.484;2023-05-07T12:58:57;5.32;;;4.82;;
15192;SDS011;7697;51.630;7.484;2023-05-07T13:04:02;4.97;;;4.57;;
15192;SDS011;7697;51.630;7.484;2023-05-07T13:09:05;5.47;;;4.70;;
15192;SDS011;7697;51.630;7.484;2023-05-07T13:14:07;4.75;;;4.35;;
15192;SDS011;7697;51.630;7.484;2023-05-07T13:19:10;4.70;;;4.30;;
15192;SDS011;7697;51.630;7.484;2023-05-07T13:24:12;4.20;;;3.80;;
15192;SDS011;7697;51.630;7.484;2023-05-07T13:29:14;4.28;;;3.83;;
15192;SDS011;7697;51.630;7.484;2023-05-07T13:34:17;4.47;;;3.92;;
15192;SDS011;7697;51.630;7.484;2023-05-07T13:39:19;5.20;;;4.38;;
15192;SDS011;7697;51.630;7.484;2023-05-07T13:44:21;5.60;;;4.85;;
15192;SDS011;7697;51.630;7.484;2023-05-07T13:49:24;4.40;;;4.00;;
15192;SDS011;7697;51.630;7.484;2023-05-07T13:54:25;4.93;;;4.43;;
15192;SDS011;7697;51.630;7.484;2023-05-07T13:59:27;4.70;;;4.30;;
15192;SDS011;7697;51.630;7.484;2023-05-07T14:04:31;4.38;;;3.97;;
15192;SDS011;7697;51.630;7.484;2023-05-07T14:09:33;4.90;;;4.50;;
15192;SDS011;7697;51.630;7.484;2023-05-07T14:14:34;5.63;;;4.38;;
15192;SDS011;7697;51.630;7.484;2023-05-07T14:19:38;3.97;;;3.55;;
15192;SDS011;7697;51.630;7.484;2023-05-07T14:24:42;5.03;;;4.53;;
15192;SDS011;7697;51.630;7.484;2023-05-07T14:29:44;5.00;;;4.50;;
15192;SDS011;7697;51.630;7.484;2023-05-07T14:34:52;6.32;;;4.60;;
15192;SDS011;7697;51.630;7.484;2023-05-07T14:39:53;4.70;;;4.30;;
15192;SDS011;7697;51.630;7.484;2023-05-07T14:44:56;4.88;;;4.30;;
15192;SDS011;7697;51.630;7.484;2023-05-07T14:50:00;4.53;;;4.13;;
15192;SDS011;7697;51.630;7.484;2023-05-07T14:55:02;4.32;;;3.92;;
15192;SDS011;7697;51.630;7.484;2023-05-07T15:00:04;4.35;;;3.95;;
15192;SDS011;7697;51.630;7.484;2023-05-07T15:05:09;4.57;;;4.18;;
15192;SDS011;7697;51.630;7.484;2023-05-07T15:10:11;4.45;;;4.05;;
15192;SDS011;7697;51.630;7.484;2023-05-07T15:15:13;4.78;;;4.05;;
15192;SDS011;7697;51.630;7.484;2023-05-07T15:20:16;4.40;;;4.00;;
15192;SDS011;7697;51.630;7.484;2023-05-07T15:25:19;5.05;;;4.55;;
15192;SDS011;7697;51.630;7.484;2023-05-07T15:30:21;5.05;;;4.53;;
15192;SDS011;7697;51.630;7.484;2023-05-07T15:35:24;5.10;;;4.60;;
15192;SDS011;7697;51.630;7.484;2023-05-07T15:40:26;4.68;;;4.28;;
15192;SDS011;7697;51.630;7.484;2023-05-07T15:45:28;4.57;;;4.18;;
15192;SDS011;7697;51.630;7.484;2023-05-07T15:50:31;4.10;;;3.75;;
15192;SDS011;7697;51.630;7.484;2023-05-07T15:55:33;5.47;;;4.80;;
15192;SDS011;7697;51.630;7.484;2023-05-07T16:00:35;4.05;;;3.70;;
15192;SDS011;7697;51.630;7.484;2023-05-07T16:05:41;4.15;;;3.70;;
15192;SDS011;7697;51.630;7.484;2023-05-07T16:10:43;6.35;;;4.10;;
15192;SDS011;7697;51.630;7.484;2023-05-07T16:15:45;13.75;;;10.50;;
15192;SDS011;7697;51.630;7.484;2023-05-07T16:20:48;6.57;;;4.88;;
15192;SDS011;7697;51.630;7.484;2023-05-07T16:25:50;3.58;;;3.00;;
15192;SDS011;7697;51.630;7.484;2023-05-07T16:30:52;4.05;;;3.08;;
15192;SDS011;7697;51.630;7.484;2023-05-07T16:35:55;3.40;;;3.03;;
15192;SDS011;7697;51.630;7.484;2023-05-07T16:40:57;3.30;;;3.00;;
15192;SDS011;7697;51.630;7.484;2023-05-07T16:45:59;3.72;;;2.72;;
15192;SDS011;7697;51.630;7.484;2023-05-07T16:51:02;3.03;;;2.72;;
15192;SDS011;7697;51.630;7.484;2023-05-07T16:56:04;2.47;;;2.28;;
15192;SDS011;7697;51.630;7.484;2023-05-07T17:01:06;2.45;;;2.10;;
15192;SDS011;7697;51.630;7.484;2023-05-07T17:06:12;2.20;;;2.00;;
15192;SDS011;7697;51.630;7.484;2023-05-07T17:11:14;2.20;;;2.00;;
15192;SDS011;7697;51.630;7.484;2023-05-07T17:16:16;2.38;;;2.10;;
15192;SDS011;7697;51.630;7.484;2023-05-07T17:21:19;2.33;;;2.00;;
15192;SDS011;7697;51.630;7.484;2023-05-07T17:26:21;2.78;;;1.92;;
15192;SDS011;7697;51.630;7.484;2023-05-07T17:31:23;2.75;;;1.85;;
15192;SDS011;7697;51.630;7.484;2023-05-07T17:36:26;3.15;;;2.20;;
15192;SDS011;7697;51.630;7.484;2023-05-07T17:41:28;2.35;;;2.15;;
15192;SDS011;7697;51.630;7.484;2023-05-07T17:46:30;2.25;;;2.00;;
15192;SDS011;7697;51.630;7.484;2023-05-07T17:51:33;3.15;;;2.03;;
15192;SDS011;7697;51.630;7.484;2023-05-07T17:56:36;2.45;;;1.88;;
15192;SDS011;7697;51.630;7.484;2023-05-07T18:01:42;2.42;;;2.10;;
15192;SDS011;7697;51.630;7.484;2023-05-07T18:06:46;2.72;;;2.13;;
15192;SDS011;7697;51.630;7.484;2023-05-07T18:11:52;2.25;;;2.05;;
15192;SDS011;7697;51.630;7.484;2023-05-07T18:16:53;2.10;;;1.90;;
15192;SDS011;7697;51.630;7.484;2023-05-07T18:22:00;2.25;;;2.05;;
15192;SDS011;7697;51.630;7.484;2023-05-07T18:27:07;2.65;;;2.00;;
15192;SDS011;7697;51.630;7.484;2023-05-07T18:32:13;2.75;;;2.45;;
15192;SDS011;7697;51.630;7.484;2023-05-07T18:37:18;2.50;;;2.05;;
15192;SDS011;7697;51.630;7.484;2023-05-07T18:42:23;4.18;;;3.53;;
15192;SDS011;7697;51.630;7.484;2023-05-07T18:47:25;5.38;;;4.88;;
15192;SDS011;7697;51.630;7.484;2023-05-07T18:52:35;5.32;;;4.82;;
15192;SDS011;7697;51.630;7.484;2023-05-07T18:57:41;5.30;;;4.50;;
15192;SDS011;7697;51.630;7.484;2023-05-07T19:02:46;5.47;;;4.97;;
15192;SDS011;7697;51.630;7.484;2023-05-07T19:07:49;6.43;;;5.82;;
15192;SDS011;7697;51.630;7.484;2023-05-07T19:12:51;8.18;;;7.47;;
15192;SDS011;7697;51.630;7.484;2023-05-07T19:17:54;7.55;;;6.85;;
15192;SDS011;7697;51.630;7.484;2023-05-07T19:22:59;8.25;;;7.55;;
15192;SDS011;7697;51.630;7.484;2023-05-07T19:28:07;8.40;;;7.00;;
15192;SDS011;7697;51.630;7.484;2023-05-07T19:33:10;8.68;;;7.90;;
15192;SDS011;7697;51.630;7.484;2023-05-07T19:38:15;8.20;;;7.40;;
15192;SDS011;7697;51.630;7.484;2023-05-07T19:43:17;10.07;;;9.07;;
15192;SDS011;7697;51.630;7.484;2023-05-07T19:48:23;9.15;;;8.32;;
15192;SDS011;7697;51.630;7.484;2023-05-07T19:53:27;8.80;;;8.00;;
15192;SDS011;7697;51.630;7.484;2023-05-07T19:58:29;9.27;;;8.38;;
15192;SDS011;7697;51.630;7.484;2023-05-07T20:03:34;8.88;;;8.07;;
15192;SDS011;7697;51.630;7.484;2023-05-07T20:08:40;8.57;;;7.78;;
15192;SDS011;7697;51.630;7.484;2023-05-07T20:13:44;10.20;;;9.20;;
15192;SDS011;7697;51.630;7.484;2023-05-07T20:18:48;10.25;;;9.35;;
15192;SDS011;7697;51.630;7.484;2023-05-07T20:23:54;9.65;;;8.75;;
15192;SDS011;7697;51.630;7.484;2023-05-07T20:29:00;10.68;;;9.57;;
15192;SDS011;7697;51.630;7.484;2023-05-07T20:34:03;8.73;;;7.93;;
15192;SDS011;7697;51.630;7.484;2023-05-07T20:39:09;9.07;;;8.27;;
15192;SDS011;7697;51.630;7.484;2023-05-07T20:44:15;8.25;;;7.45;;
15192;SDS011;7697;51.630;7.484;2023-05-07T20:49:19;9.90;;;8.95;;
15192;SDS011;7697;51.630;7.484;2023-05-07T20:54:23;9.60;;;8.60;;
15192;SDS011;7697;51.630;7.484;2023-05-07T20:59:27;8.70;;;7.90;;
15192;SDS011;7697;51.630;7.484;2023-05-07T21:04:28;8.90;;;8.10;;
15192;SDS011;7697;51.630;7.484;2023-05-07T21:09:36;9.63;;;8.75;;
15192;SDS011;7697;51.630;7.484;2023-05-07T21:14:38;9.52;;;8.63;;
15192;SDS011;7697;51.630;7.484;2023-05-07T21:19:44;9.25;;;8.35;;
15192;SDS011;7697;51.630;7.484;2023-05-07T21:24:50;9.32;;;8.43;;
15192;SDS011;7697;51.630;7.484;2023-05-07T21:29:52;9.60;;;8.70;;
15192;SDS011;7697;51.630;7.484;2023-05-07T21:34:59;8.60;;;7.80;;
15192;SDS011;7697;51.630;7.484;2023-05-07T21:40:02;9.90;;;9.00;;
15192;SDS011;7697;51.630;7.484;2023-05-07T21:45:08;10.07;;;9.18;;
15192;SDS011;7697;51.630;7.484;2023-05-07T21:50:10;9.95;;;8.95;;
15192;SDS011;7697;51.630;7.484;2023-05-07T21:55:17;9.40;;;8.55;;
15192;SDS011;7697;51.630;7.484;2023-05-07T22:00:19;9.13;;;8.23;;
15192;SDS011;7697;51.630;7.484;2023-05-07T22:05:22;9.52;;;8.52;;
15192;SDS011;7697;51.630;7.484;2023-05-07T22:10:25;8.40;;;7.70;;
15192;SDS011;7697;51.630;7.484;2023-05-07T22:15:27;9.73;;;8.82;;
15192;SDS011;7697;51.630;7.484;2023-05-07T22:20:28;9.15;;;7.60;;
15192;SDS011;7697;51.630;7.484;2023-05-07T22:25:32;9.32;;;8.43;;
15192;SDS011;7697;51.630;7.484;2023-05-07T22:30:34;8.02;;;7.32;;
15192;SDS011;7697;51.630;7.484;2023-05-07T22:35:36;6.90;;;6.30;;
15192;SDS011;7697;51.630;7.484;2023-05-07T22:40:39;8.80;;;8.00;;
15192;SDS011;7697;51.630;7.484;2023-05-07T22:45:41;7.80;;;7.07;;
15192;SDS011;7697;51.630;7.484;2023-05-07T22:50:43;8.00;;;7.20;;
15192;SDS011;7697;51.630;7.484;2023-05-07T22:55:46;6.95;;;6.35;;
15192;SDS011;7697;51.630;7.484;2023-05-07T23:00:48;7.18;;;6.47;;
15192;SDS011;7697;51.630;7.484;2023-05-07T23:05:51;7.45;;;6.85;;
15192;SDS011;7697;51.630;7.484;2023-05-07T23:10:54;8.07;;;7.38;;
15192;SDS011;7697;51.630;7.484;2023-05-07T23:15:56;8.05;;;7.35;;
15192;SDS011;7697;51.630;7.484;2023-05-07T23:20:58;7.50;;;6.75;;
15192;SDS011;7697;51.630;7.484;2023-05-07T23:26:01;8.80;;;8.00;;
15192;SDS011;7697;51.630;7.484;2023-05-07T23:31:05;8.18;;;7.45;;
15192;SDS011;7697;51.630;7.484;2023-05-07T23:36:07;6.90;;;6.30;;
15192;SDS011;7697;51.630;7.484;2023-05-07T23:41:10;7.43;;;6.82;;
15192;SDS011;7697;51.630;7.484;2023-05-07T23:46:12;6.95;;;6.25;;
15192;SDS011;7697;51.630;7.484;2023-05-07T23:51:14;6.68;;;6.07;;
15192;SDS011;7697;51.630;7.484;2023-05-07T23:56:18;7.35;;;6.65;;
